Time;durP1;ratioP1;P1;durP2;ratioP2;P2;SDS_P1;SDS_P2;PMS_P1;PMS_P2;Temp;Humidity;BMP_temperature;BMP_pressure;BME280_temperature;BME280_humidity;BME280_pressure;Samples;Min_cycle;Max_cycle;Signal;HPM_P1;HPM_P2
2021/08/13 00:01:08;;;;;;;25.88;16.52;;;17.50;99.90;;;;;;5045270;28;20033;-61
2021/08/13 00:03:34;;;;;;;25.17;15.90;;;17.50;99.90;;;;;;5045428;28;20037;-62
2021/08/13 00:05:59;;;;;;;24.83;16.73;;;17.40;99.90;;;;;;5043936;28;20120;-58
2021/08/13 00:08:25;;;;;;;28.48;17.48;;;17.40;99.90;;;;;;5043500;28;20029;-62
2021/08/13 00:10:51;;;;;;;26.92;18.27;;;17.40;99.90;;;;;;5041277;28;20032;-61
2021/08/13 00:13:17;;;;;;;29.15;18.52;;;17.30;99.90;;;;;;5042626;28;20667;-61
2021/08/13 00:15:42;;;;;;;34.95;17.35;;;17.30;99.90;;;;;;5043837;28;20033;-62
2021/08/13 00:18:08;;;;;;;33.05;18.30;;;17.30;99.90;;;;;;5041385;28;20401;-62
2021/08/13 00:20:34;;;;;;;30.17;18.38;;;17.30;99.90;;;;;;5044662;28;20216;-62
2021/08/13 00:23:00;;;;;;;36.13;19.88;;;17.30;99.90;;;;;;5042684;28;20033;-62
2021/08/13 00:25:26;;;;;;;29.15;17.10;;;17.30;99.90;;;;;;5038936;28;20423;-62
2021/08/13 00:27:52;;;;;;;26.50;17.90;;;17.30;99.90;;;;;;5040407;28;20031;-62
2021/08/13 00:30:18;;;;;;;29.88;16.95;;;17.30;99.90;;;;;;5043450;28;20028;-62
2021/08/13 00:32:43;;;;;;;26.30;17.17;;;17.40;99.90;;;;;;5039740;28;20033;-62
2021/08/13 00:35:09;;;;;;;31.77;18.85;;;17.40;99.90;;;;;;5039942;28;20040;-60
2021/08/13 00:37:35;;;;;;;28.20;17.52;;;17.40;99.90;;;;;;5041058;28;20033;-62
2021/08/13 00:40:00;;;;;;;28.63;17.77;;;17.30;99.90;;;;;;5040618;28;20047;-61
2021/08/13 00:42:26;;;;;;;25.17;17.25;;;17.30;99.90;;;;;;5041231;28;20029;-62
2021/08/13 00:44:51;;;;;;;27.58;17.60;;;17.30;99.90;;;;;;5041955;28;20059;-61
2021/08/13 00:47:17;;;;;;;25.30;16.25;;;17.40;99.90;;;;;;5041166;28;20020;-62
2021/08/13 00:49:43;;;;;;;25.13;16.48;;;17.30;99.90;;;;;;5039900;28;20408;-61
2021/08/13 00:52:08;;;;;;;34.00;17.95;;;17.40;99.90;;;;;;5040741;28;20141;-62
2021/08/13 00:54:34;;;;;;;26.15;15.77;;;17.40;99.90;;;;;;5041415;28;20041;-61
2021/08/13 00:57:00;;;;;;;24.48;15.95;;;17.50;99.90;;;;;;5042700;28;20021;-62
2021/08/13 00:59:26;;;;;;;30.42;16.88;;;17.50;99.90;;;;;;5047371;28;20029;-61
2021/08/13 01:01:51;;;;;;;29.65;18.42;;;17.40;99.90;;;;;;5038214;28;20041;-62
2021/08/13 01:04:17;;;;;;;27.80;18.83;;;17.40;99.90;;;;;;5040706;28;20099;-62
2021/08/13 01:06:43;;;;;;;31.67;19.45;;;17.30;99.90;;;;;;5040139;28;20021;-62
2021/08/13 01:09:08;;;;;;;32.42;18.63;;;17.30;99.90;;;;;;5040264;28;20020;-62
2021/08/13 01:11:47;;;;;;;29.58;18.95;;;17.30;99.90;;;;;;5045289;28;20129;-62
2021/08/13 01:14:29;;;;;;;28.23;19.00;;;17.20;99.90;;;;;;5042303;28;20044;-61
2021/08/13 01:16:57;;;;;;;30.45;19.25;;;17.10;99.90;;;;;;5039843;28;20035;-61
2021/08/13 01:19:26;;;;;;;31.23;18.23;;;17.10;99.90;;;;;;5040311;28;20048;-62
2021/08/13 01:22:00;;;;;;;27.85;19.50;;;17.10;99.90;;;;;;5039811;28;20493;-62
2021/08/13 01:24:28;;;;;;;30.88;19.02;;;17.00;99.90;;;;;;5039196;28;20031;-61
2021/08/13 01:27:10;;;;;;;29.92;20.23;;;17.00;99.90;;;;;;5039226;28;20068;-62
2021/08/13 01:29:42;;;;;;;29.60;19.02;;;17.00;99.90;;;;;;5039385;28;20037;-61
2021/08/13 01:32:32;;;;;;;32.58;21.17;;;17.00;99.90;;;;;;5039180;28;20029;-61
2021/08/13 01:35:03;;;;;;;34.05;20.92;;;17.00;99.90;;;;;;5041626;28;20123;-62
2021/08/13 01:37:30;;;;;;;36.75;21.85;;;16.90;99.90;;;;;;5042432;28;20032;-61
2021/08/13 01:39:59;;;;;;;32.38;21.23;;;17.00;99.90;;;;;;5044008;28;20054;-61
2021/08/13 01:42:26;;;;;;;36.60;20.67;;;17.00;99.90;;;;;;5042802;28;20028;-61
2021/08/13 01:44:54;;;;;;;34.13;19.60;;;17.00;99.90;;;;;;5045078;28;20033;-61
2021/08/13 01:47:20;;;;;;;33.72;21.25;;;17.00;99.90;;;;;;5043628;28;20035;-62
2021/08/13 01:49:45;;;;;;;32.95;21.40;;;16.90;99.90;;;;;;5044944;28;20115;-59
2021/08/13 01:52:11;;;;;;;40.65;22.00;;;16.90;99.90;;;;;;5042853;28;20021;-61
2021/08/13 01:54:37;;;;;;;38.72;20.88;;;16.90;99.90;;;;;;5043603;28;20405;-62
2021/08/13 01:57:03;;;;;;;35.00;21.45;;;16.90;99.90;;;;;;5042825;28;20033;-62
2021/08/13 01:59:33;;;;;;;29.05;19.80;;;16.90;99.90;;;;;;5044700;28;20366;-62
2021/08/13 02:01:59;;;;;;;32.85;21.25;;;16.80;99.90;;;;;;5068238;22;20047;-54
2021/08/13 02:04:25;;;;;;;34.83;22.83;;;16.80;99.90;;;;;;5092559;27;20028;-57
2021/08/13 02:06:51;;;;;;;32.67;20.30;;;16.80;99.90;;;;;;5096102;27;20081;-59
2021/08/13 02:09:18;;;;;;;37.40;21.05;;;16.80;99.90;;;;;;5091031;27;21581;-56
2021/08/13 02:11:45;;;;;;;35.53;19.10;;;16.80;99.90;;;;;;5098162;27;20050;-58
2021/08/13 02:14:11;;;;;;;37.40;21.00;;;16.70;99.90;;;;;;5088690;28;20027;-58
2021/08/13 02:16:38;;;;;;;29.45;19.67;;;16.70;99.90;;;;;;5083338;28;20383;-58
2021/08/13 02:19:12;;;;;;;33.85;20.17;;;16.80;99.90;;;;;;5083524;28;20020;-57
2021/08/13 02:21:40;;;;;;;28.85;19.30;;;16.90;99.90;;;;;;5077981;28;20521;-60
2021/08/13 02:24:05;;;;;;;29.00;19.90;;;16.90;99.90;;;;;;5085827;28;20496;-60
2021/08/13 02:26:31;;;;;;;31.30;19.70;;;16.90;99.90;;;;;;5084242;28;20025;-61
2021/08/13 02:28:57;;;;;;;33.58;18.65;;;16.90;99.90;;;;;;5083281;28;20036;-62
2021/08/13 02:31:23;;;;;;;31.50;19.17;;;16.90;99.90;;;;;;5080478;28;20124;-60
2021/08/13 02:33:49;;;;;;;28.85;17.88;;;16.90;99.90;;;;;;5084204;28;20042;-60
2021/08/13 02:36:16;;;;;;;27.10;18.38;;;16.90;99.90;;;;;;5083710;28;20453;-59
2021/08/13 02:38:55;;;;;;;30.38;19.33;;;17.00;99.90;;;;;;5083388;28;20527;-60
2021/08/13 02:41:21;;;;;;;32.28;20.00;;;16.90;99.90;;;;;;5083818;28;20077;-56
2021/08/13 02:43:56;;;;;;;33.53;19.70;;;16.90;99.90;;;;;;5084956;28;20031;-56
2021/08/13 02:46:23;;;;;;;29.80;19.20;;;16.90;99.90;;;;;;5082702;28;20051;-57
2021/08/13 02:48:52;;;;;;;31.70;17.55;;;16.80;99.90;;;;;;5079944;28;20032;-59
2021/08/13 02:51:17;;;;;;;26.73;16.92;;;16.70;99.90;;;;;;5082635;28;20423;-58
2021/08/13 02:53:46;;;;;;;27.65;16.45;;;16.70;99.90;;;;;;5081777;28;20214;-59
2021/08/13 02:56:15;;;;;;;29.45;17.73;;;16.80;99.90;;;;;;5081611;28;20024;-56
2021/08/13 02:58:50;;;;;;;34.50;17.80;;;16.80;99.90;;;;;;5081359;28;20035;-57
2021/08/13 03:01:20;;;;;;;29.20;17.25;;;16.70;99.90;;;;;;5079488;28;20512;-53
2021/08/13 03:03:47;;;;;;;29.42;18.35;;;16.70;99.90;;;;;;5080860;28;20025;-58
2021/08/13 03:06:17;;;;;;;31.30;18.50;;;16.70;99.90;;;;;;5082990;28;20020;-57
2021/08/13 03:08:45;;;;;;;31.85;18.88;;;16.70;99.90;;;;;;5082081;28;20546;-56
2021/08/13 03:11:12;;;;;;;33.55;18.27;;;16.60;99.90;;;;;;5081960;28;20112;-56
2021/08/13 03:13:38;;;;;;;31.67;19.00;;;16.60;99.90;;;;;;5083769;28;20082;-57
2021/08/13 03:16:04;;;;;;;28.58;18.33;;;16.60;99.90;;;;;;5080628;28;20421;-58
2021/08/13 03:18:31;;;;;;;26.83;17.48;;;16.70;99.90;;;;;;5081119;28;20111;-56
2021/08/13 03:20:57;;;;;;;29.35;16.98;;;16.70;99.90;;;;;;5080583;28;20085;-57
2021/08/13 03:23:24;;;;;;;32.00;18.85;;;16.60;99.90;;;;;;5072236;28;20050;-54
2021/08/13 03:25:50;;;;;;;29.40;18.17;;;16.60;99.90;;;;;;5084139;28;20498;-57
2021/08/13 03:28:16;;;;;;;32.72;18.90;;;16.60;99.90;;;;;;5074156;28;20054;-59
2021/08/13 03:30:43;;;;;;;32.33;20.25;;;16.60;99.90;;;;;;5081232;28;20492;-59
2021/08/13 03:33:11;;;;;;;34.95;20.02;;;16.60;99.90;;;;;;5079225;28;20527;-57
2021/08/13 03:35:37;;;;;;;35.22;18.75;;;16.60;99.90;;;;;;5081503;28;20051;-62
2021/08/13 03:38:03;;;;;;;28.70;19.35;;;16.60;99.90;;;;;;5083172;28;20025;-62
2021/08/13 03:40:29;;;;;;;29.40;17.88;;;16.60;99.90;;;;;;5080187;28;20489;-61
2021/08/13 03:42:54;;;;;;;34.33;17.58;;;16.60;99.90;;;;;;5080069;28;20120;-60
2021/08/13 03:45:20;;;;;;;28.80;17.42;;;16.70;99.90;;;;;;5080678;28;20024;-60
2021/08/13 03:47:46;;;;;;;26.42;17.08;;;16.70;99.90;;;;;;5082335;28;20028;-52
2021/08/13 03:50:11;;;;;;;29.60;15.93;;;16.70;99.90;;;;;;5080205;28;20032;-61
2021/08/13 03:52:37;;;;;;;24.52;17.55;;;16.70;99.90;;;;;;5081361;28;20048;-59
2021/08/13 03:55:03;;;;;;;23.58;16.10;;;16.70;99.90;;;;;;5080304;28;20027;-59
2021/08/13 03:57:28;;;;;;;25.40;16.05;;;16.80;99.90;;;;;;5082328;28;20028;-62
2021/08/13 03:59:54;;;;;;;29.15;15.63;;;16.80;99.90;;;;;;5082634;28;20078;-58
2021/08/13 04:02:19;;;;;;;26.95;17.58;;;16.80;99.90;;;;;;5079505;28;20028;-56
2021/08/13 04:04:45;;;;;;;28.58;17.08;;;16.80;99.90;;;;;;5077005;28;20078;-60
2021/08/13 04:07:11;;;;;;;26.83;16.80;;;16.80;99.90;;;;;;5080622;28;20028;-61
2021/08/13 04:09:37;;;;;;;27.65;17.13;;;16.70;99.90;;;;;;5080653;28;20438;-60
2021/08/13 04:12:03;;;;;;;27.60;16.10;;;16.70;99.90;;;;;;5080645;28;20040;-58
2021/08/13 04:14:28;;;;;;;30.10;17.38;;;16.70;99.90;;;;;;5080443;28;20055;-62
2021/08/13 04:16:54;;;;;;;24.85;16.67;;;16.70;99.90;;;;;;5081444;28;20048;-60
2021/08/13 04:19:20;;;;;;;26.65;17.17;;;16.70;99.90;;;;;;5080649;28;20062;-60
2021/08/13 04:21:45;;;;;;;25.70;16.30;;;16.70;99.90;;;;;;5077976;28;20027;-58
2021/08/13 04:24:11;;;;;;;24.75;15.95;;;16.60;99.90;;;;;;5081645;28;20027;-58
2021/08/13 04:26:37;;;;;;;24.55;16.20;;;16.70;99.90;;;;;;5081546;28;20457;-60
2021/08/13 04:29:02;;;;;;;27.75;15.93;;;16.70;99.90;;;;;;5079927;28;20028;-59
2021/08/13 04:31:28;;;;;;;25.52;16.83;;;16.70;99.90;;;;;;5077200;28;20069;-59
2021/08/13 04:33:54;;;;;;;29.55;17.25;;;16.70;99.90;;;;;;5083840;28;20070;-61
2021/08/13 04:36:19;;;;;;;25.58;15.73;;;16.70;99.90;;;;;;5084214;28;20488;-60
2021/08/13 04:38:45;;;;;;;27.80;16.77;;;16.70;99.90;;;;;;5082668;28;20388;-60
2021/08/13 04:41:10;;;;;;;29.17;16.48;;;16.70;99.90;;;;;;5074255;28;20025;-59
2021/08/13 04:43:36;;;;;;;30.27;17.15;;;16.70;99.90;;;;;;5080930;28;20027;-60
2021/08/13 04:46:02;;;;;;;31.02;18.02;;;16.70;99.90;;;;;;5080041;28;20012;-56
2021/08/13 04:48:27;;;;;;;27.17;17.92;;;16.70;99.90;;;;;;5081745;28;20024;-59
2021/08/13 04:50:53;;;;;;;24.42;16.55;;;16.70;99.90;;;;;;5070516;28;20053;-59
2021/08/13 04:53:18;;;;;;;26.13;15.88;;;16.70;99.90;;;;;;5079971;28;20402;-59
2021/08/13 04:55:44;;;;;;;26.75;16.25;;;16.70;99.90;;;;;;5081597;28;20043;-60
2021/08/13 04:58:10;;;;;;;26.40;16.95;;;16.90;99.90;;;;;;5078964;28;20037;-60
2021/08/13 05:00:35;;;;;;;24.00;16.48;;;16.90;99.90;;;;;;5080375;28;20078;-62
2021/08/13 05:03:05;;;;;;;27.02;16.60;;;17.00;99.90;;;;;;5079262;28;20028;-62
2021/08/13 05:05:30;;;;;;;25.77;16.70;;;17.00;99.90;;;;;;5077248;28;20664;-61
2021/08/13 05:07:56;;;;;;;31.33;18.38;;;17.10;99.90;;;;;;5080139;28;20055;-60
2021/08/13 05:10:22;;;;;;;31.30;16.80;;;17.20;99.90;;;;;;5081065;28;20024;-58
2021/08/13 05:12:47;;;;;;;27.15;15.82;;;17.20;99.90;;;;;;5080876;28;20392;-59
2021/08/13 05:15:14;;;;;;;22.77;15.90;;;17.30;99.90;;;;;;5080988;28;20059;-60
2021/08/13 05:17:40;;;;;;;27.58;16.90;;;17.30;99.90;;;;;;5088277;28;20041;-62
2021/08/13 05:20:06;;;;;;;26.10;18.17;;;17.40;99.90;;;;;;5085687;28;20527;-62
2021/08/13 05:22:34;;;;;;;27.77;16.85;;;17.40;99.90;;;;;;5080296;28;20055;-60
2021/08/13 05:25:05;;;;;;;31.40;16.23;;;17.40;99.90;;;;;;5085285;28;20031;-59
2021/08/13 05:27:30;;;;;;;27.27;17.92;;;17.50;99.90;;;;;;5085226;28;20020;-62
2021/08/13 05:29:56;;;;;;;28.38;18.42;;;17.60;99.90;;;;;;5080851;28;20556;-64
2021/08/13 05:32:23;;;;;;;30.42;16.90;;;17.60;99.90;;;;;;5080992;28;20028;-64
2021/08/13 05:34:48;;;;;;;25.17;16.48;;;17.70;99.90;;;;;;5089355;28;20111;-64
2021/08/13 05:37:14;;;;;;;25.23;16.63;;;17.70;99.90;;;;;;5087281;28;20567;-64
2021/08/13 05:39:40;;;;;;;31.25;17.40;;;17.80;99.90;;;;;;5082712;28;20058;-63
2021/08/13 05:42:05;;;;;;;36.38;19.00;;;17.90;99.90;;;;;;5081297;28;20380;-64
2021/08/13 05:44:31;;;;;;;29.52;17.65;;;17.90;99.90;;;;;;5085170;28;20483;-64
2021/08/13 05:46:57;;;;;;;28.25;16.40;;;17.90;99.90;;;;;;5081449;28;20549;-63
2021/08/13 05:49:22;;;;;;;30.00;19.40;;;17.90;99.90;;;;;;5085028;28;20025;-64
2021/08/13 05:51:48;;;;;;;27.50;18.13;;;18.00;99.90;;;;;;5084007;28;20471;-63
2021/08/13 05:54:13;;;;;;;28.33;17.73;;;18.00;99.90;;;;;;5087031;28;20027;-64
2021/08/13 05:56:39;;;;;;;32.15;18.30;;;18.10;99.90;;;;;;5085727;28;20016;-64
2021/08/13 05:59:04;;;;;;;34.58;17.10;;;18.10;99.90;;;;;;5087810;28;20032;-65
2021/08/13 06:01:30;;;;;;;30.02;16.25;;;18.10;99.90;;;;;;5082995;28;20020;-64
2021/08/13 06:03:56;;;;;;;24.77;17.23;;;18.20;99.90;;;;;;5080485;28;20105;-64
2021/08/13 06:06:21;;;;;;;28.10;17.33;;;18.30;99.90;;;;;;5086271;28;20020;-64
2021/08/13 06:08:47;;;;;;;23.90;16.13;;;18.30;99.90;;;;;;5083073;28;20036;-64
2021/08/13 06:11:13;;;;;;;30.13;17.77;;;18.40;99.90;;;;;;5084841;28;20036;-64
2021/08/13 06:13:38;;;;;;;32.05;19.17;;;18.50;99.90;;;;;;5082670;28;20020;-63
2021/08/13 06:16:05;;;;;;;30.15;19.48;;;18.50;99.90;;;;;;5081498;28;20091;-64
2021/08/13 06:18:30;;;;;;;27.23;18.40;;;18.60;99.90;;;;;;5085024;28;20031;-64
2021/08/13 06:20:56;;;;;;;25.77;17.55;;;18.70;99.90;;;;;;5085358;28;20039;-64
2021/08/13 06:23:21;;;;;;;30.48;18.33;;;18.70;99.90;;;;;;5084429;28;20074;-64
2021/08/13 06:25:47;;;;;;;25.95;17.15;;;18.80;99.90;;;;;;5082631;28;20035;-63
2021/08/13 06:28:13;;;;;;;28.13;19.35;;;18.90;99.90;;;;;;5078664;28;20028;-65
2021/08/13 06:30:38;;;;;;;33.33;18.73;;;19.00;99.90;;;;;;5085384;28;20084;-63
2021/08/13 06:33:04;;;;;;;27.65;18.05;;;19.10;99.90;;;;;;5087302;28;20115;-64
2021/08/13 06:35:30;;;;;;;30.23;17.95;;;19.20;99.90;;;;;;5085173;28;20043;-62
2021/08/13 06:37:56;;;;;;;29.17;18.10;;;19.30;99.90;;;;;;5085835;28;20056;-64
2021/08/13 06:40:23;;;;;;;28.95;16.80;;;19.40;99.90;;;;;;5087327;28;20035;-64
2021/08/13 06:42:49;;;;;;;27.02;17.58;;;19.50;99.90;;;;;;5087484;28;20028;-64
2021/08/13 06:45:18;;;;;;;34.65;19.58;;;19.50;99.90;;;;;;5077931;28;20028;-63
2021/08/13 06:47:44;;;;;;;33.05;19.63;;;19.60;99.90;;;;;;5088482;28;20032;-65
2021/08/13 06:50:12;;;;;;;32.67;18.77;;;19.70;99.90;;;;;;5083722;28;20031;-64
2021/08/13 06:52:38;;;;;;;28.08;17.52;;;19.70;99.90;;;;;;5085338;28;20031;-64
2021/08/13 06:55:05;;;;;;;25.73;18.73;;;19.80;99.90;;;;;;5082722;28;20028;-64
2021/08/13 06:57:31;;;;;;;24.77;17.60;;;19.80;99.90;;;;;;5085926;28;20024;-65
2021/08/13 06:59:56;;;;;;;30.40;18.73;;;19.90;99.90;;;;;;5083197;28;20490;-64
2021/08/13 07:02:23;;;;;;;27.00;16.55;;;19.90;99.90;;;;;;5084408;28;20016;-64
2021/08/13 07:04:49;;;;;;;27.15;17.20;;;19.90;99.90;;;;;;5086873;28;20030;-65
2021/08/13 07:07:14;;;;;;;29.98;16.70;;;20.00;99.90;;;;;;5088224;28;20032;-64
2021/08/13 07:09:46;;;;;;;29.45;18.42;;;20.10;99.90;;;;;;5080163;28;20050;-65
2021/08/13 07:12:12;;;;;;;33.65;17.70;;;20.30;99.90;;;;;;5087127;28;20038;-64
2021/08/13 07:14:38;;;;;;;28.15;17.02;;;20.30;99.90;;;;;;5083892;28;20020;-63
2021/08/13 07:17:03;;;;;;;33.17;17.42;;;20.40;99.90;;;;;;5086570;28;20088;-64
2021/08/13 07:19:29;;;;;;;33.90;18.00;;;20.40;99.90;;;;;;5080537;28;20480;-65
2021/08/13 07:21:54;;;;;;;29.45;17.52;;;20.50;99.90;;;;;;5086030;28;20047;-64
2021/08/13 07:24:22;;;;;;;37.60;15.68;;;20.50;99.90;;;;;;5083543;28;20031;-64
2021/08/13 07:26:48;;;;;;;31.35;14.98;;;20.60;99.90;;;;;;5086883;28;20565;-64
2021/08/13 07:29:13;;;;;;;25.90;14.95;;;20.70;99.90;;;;;;5086390;28;20024;-64
2021/08/13 07:31:39;;;;;;;30.95;16.30;;;20.80;99.90;;;;;;5085917;28;20073;-63
2021/08/13 07:34:04;;;;;;;31.15;17.20;;;20.70;99.90;;;;;;5083875;28;20024;-63
2021/08/13 07:36:30;;;;;;;27.98;15.57;;;20.80;99.90;;;;;;5084833;28;20043;-63
2021/08/13 07:38:56;;;;;;;32.17;17.35;;;20.90;99.90;;;;;;5089678;28;20020;-64
2021/08/13 07:41:21;;;;;;;33.70;18.60;;;21.00;99.90;;;;;;5088012;28;20035;-63
2021/08/13 07:43:47;;;;;;;29.90;19.15;;;21.00;99.90;;;;;;5085362;28;20373;-63
2021/08/13 07:46:13;;;;;;;35.28;19.98;;;21.10;99.90;;;;;;5085911;28;20026;-65
2021/08/13 08:00:15;;;;;;;47.85;28.10;;;21.20;99.90;;;;;;5125809;27;20913;-63
2021/08/13 08:02:41;;;;;;;47.75;26.63;;;21.40;99.90;;;;;;5105048;27;20058;-63
2021/08/13 08:05:07;;;;;;;49.20;27.25;;;21.30;99.90;;;;;;5121320;22;20520;-60
2021/08/13 08:07:34;;;;;;;55.47;27.55;;;21.30;99.90;;;;;;5099538;28;20019;-58
2021/08/13 08:10:00;;;;;;;44.30;24.67;;;21.30;99.90;;;;;;5103463;28;20095;-62
2021/08/13 08:12:25;;;;;;;55.80;25.90;;;21.40;99.90;;;;;;5103498;28;20035;-59
2021/08/13 08:14:51;;;;;;;44.90;24.55;;;21.40;99.90;;;;;;5105955;28;20055;-60
2021/08/13 08:17:16;;;;;;;65.07;27.50;;;21.50;99.90;;;;;;5122673;28;20110;-61
2021/08/13 08:19:42;;;;;;;56.55;26.95;;;21.60;99.90;;;;;;5120403;27;20028;-59
2021/08/13 08:22:07;;;;;;;48.50;30.48;;;21.80;99.90;;;;;;5122086;27;20450;-60
2021/08/13 08:24:33;;;;;;;47.38;28.48;;;21.90;99.90;;;;;;5119910;27;20035;-60
2021/08/13 08:26:59;;;;;;;48.33;30.90;;;21.90;99.90;;;;;;5120001;28;20035;-59
2021/08/13 08:29:24;;;;;;;60.20;30.80;;;21.90;99.90;;;;;;5122084;28;20023;-59
2021/08/13 08:31:50;;;;;;;48.40;32.33;;;21.90;99.90;;;;;;5120559;27;20016;-60
2021/08/13 08:34:16;;;;;;;65.80;38.33;;;22.00;99.90;;;;;;5122703;27;20508;-59
2021/08/13 08:36:42;;;;;;;57.80;37.72;;;22.00;99.90;;;;;;5117740;28;20081;-60
2021/08/13 08:39:07;;;;;;;59.95;38.03;;;21.90;99.90;;;;;;5119568;28;20024;-62
2021/08/13 08:41:33;;;;;;;60.38;37.03;;;21.90;99.90;;;;;;5118959;28;20058;-60
2021/08/13 08:43:58;;;;;;;58.22;35.40;;;22.00;99.90;;;;;;5121191;27;20039;-60
2021/08/13 08:46:24;;;;;;;61.90;37.08;;;22.10;99.90;;;;;;5120643;27;20031;-60
2021/08/13 08:48:52;;;;;;;63.50;41.58;;;22.20;99.90;;;;;;5120318;28;20546;-59
2021/08/13 08:51:19;;;;;;;57.90;35.00;;;22.40;99.90;;;;;;5122320;28;20054;-59
2021/08/13 08:53:55;;;;;;;60.78;33.17;;;22.60;99.90;;;;;;5122675;27;20020;-59
2021/08/13 08:56:24;;;;;;;69.43;38.20;;;22.70;99.90;;;;;;5120278;28;20026;-60
2021/08/13 08:58:50;;;;;;;59.95;36.15;;;22.60;99.90;;;;;;5118775;28;20068;-59
2021/08/13 09:01:15;;;;;;;63.55;37.90;;;22.60;99.90;;;;;;5109757;28;20438;-59
2021/08/13 09:03:42;;;;;;;56.50;33.90;;;22.60;99.90;;;;;;5110197;28;20031;-59
2021/08/13 09:06:09;;;;;;;49.80;31.50;;;22.70;99.90;;;;;;5106075;28;20062;-60
2021/08/13 09:08:36;;;;;;;58.38;35.45;;;22.70;99.90;;;;;;5108131;28;20036;-62
2021/08/13 09:11:01;;;;;;;49.45;31.63;;;22.80;99.90;;;;;;5106867;28;20024;-61
2021/08/13 09:13:28;;;;;;;53.08;31.80;;;22.70;99.90;;;;;;5100988;28;20026;-60
2021/08/13 09:15:53;;;;;;;59.00;35.63;;;22.70;99.90;;;;;;5103947;27;20474;-62
2021/08/13 09:18:24;;;;;;;51.58;31.27;;;22.60;99.90;;;;;;5107576;28;20031;-60
2021/08/13 09:21:00;;;;;;;59.67;35.50;;;22.80;99.90;;;;;;5096145;28;20035;-62
2021/08/13 09:23:40;;;;;;;59.53;33.42;;;22.90;99.90;;;;;;5103236;28;20034;-61
2021/08/13 09:26:20;;;;;;;51.65;31.85;;;22.90;99.90;;;;;;5103575;28;20023;-59
2021/08/13 09:28:57;;;;;;;55.97;30.35;;;22.90;99.90;;;;;;5107392;28;20415;-59
2021/08/13 09:31:23;;;;;;;57.22;32.05;;;23.20;99.90;;;;;;5104741;27;20702;-58
2021/08/13 09:33:51;;;;;;;53.92;31.88;;;23.20;99.90;;;;;;5105651;28;20032;-60
2021/08/13 09:36:18;;;;;;;49.50;29.77;;;23.20;99.90;;;;;;5105391;28;20546;-60
2021/08/13 09:38:44;;;;;;;49.42;29.63;;;23.20;99.90;;;;;;5105988;28;20060;-60
2021/08/13 09:41:17;;;;;;;43.72;27.45;;;23.20;99.90;;;;;;5107090;27;20030;-60
2021/08/13 09:43:57;;;;;;;43.38;25.83;;;23.30;99.90;;;;;;5105769;28;20106;-60
2021/08/13 09:46:23;;;;;;;40.33;26.33;;;23.30;99.90;;;;;;5108039;28;20032;-60
2021/08/13 09:48:49;;;;;;;45.65;25.85;;;23.40;99.90;;;;;;5096187;27;20024;-56
2021/08/13 09:51:35;;;;;;;45.22;26.27;;;23.60;99.90;;;;;;5104357;28;20020;-60
2021/08/13 09:54:04;;;;;;;41.50;24.30;;;23.70;99.90;;;;;;5111580;27;20019;-57
2021/08/13 09:56:33;;;;;;;46.50;25.23;;;23.70;99.90;;;;;;5100024;27;20015;-60
2021/08/13 09:59:13;;;;;;;38.20;26.50;;;23.70;99.90;;;;;;5103512;27;20435;-58
2021/08/13 10:01:41;;;;;;;37.70;23.17;;;23.70;99.90;;;;;;5106059;27;20032;-59
2021/08/13 10:04:07;;;;;;;41.55;24.88;;;23.60;99.90;;;;;;5102975;28;20541;-60
2021/08/13 10:06:35;;;;;;;41.30;26.58;;;23.60;99.90;;;;;;5103804;28;20508;-60
2021/08/13 10:09:02;;;;;;;41.72;25.88;;;23.50;99.90;;;;;;5104963;28;20444;-60
2021/08/13 10:11:27;;;;;;;44.78;26.05;;;23.60;99.90;;;;;;5104700;28;20063;-60
2021/08/13 10:13:54;;;;;;;36.80;24.20;;;23.90;99.90;;;;;;5104464;27;20490;-59
2021/08/13 10:16:25;;;;;;;38.97;23.75;;;24.10;99.90;;;;;;5106731;28;20066;-59
2021/08/13 10:18:55;;;;;;;32.00;20.88;;;24.40;99.90;;;;;;5108080;28;20031;-59
2021/08/13 10:21:25;;;;;;;30.98;19.17;;;24.60;99.90;;;;;;5106443;28;20401;-60
2021/08/13 10:23:55;;;;;;;33.33;17.70;;;24.40;99.90;;;;;;5102167;27;20020;-60
2021/08/13 10:26:21;;;;;;;29.38;17.50;;;24.60;99.90;;;;;;5103580;28;20525;-60
2021/08/13 10:28:48;;;;;;;35.15;19.25;;;24.80;99.90;;;;;;5093109;27;20069;-61
2021/08/13 10:31:17;;;;;;;24.42;16.85;;;24.70;99.90;;;;;;5101538;28;20028;-61
2021/08/13 10:33:44;;;;;;;23.85;14.82;;;24.70;99.90;;;;;;5108240;28;20562;-62
2021/08/13 10:36:11;;;;;;;25.70;16.77;;;24.80;99.90;;;;;;5102370;27;20103;-61
2021/08/13 10:38:39;;;;;;;28.15;15.63;;;24.60;99.90;;;;;;5105782;28;20536;-61
2021/08/13 10:41:06;;;;;;;19.27;14.20;;;24.60;99.90;;;;;;5106738;27;20027;-60
2021/08/13 10:43:38;;;;;;;20.35;14.10;;;24.70;99.90;;;;;;5103647;28;21438;-60
2021/08/13 10:46:07;;;;;;;19.27;12.68;;;24.70;99.90;;;;;;5107818;27;20180;-60
2021/08/13 10:48:36;;;;;;;20.77;13.05;;;24.80;99.90;;;;;;5103606;27;20108;-61
2021/08/13 10:51:02;;;;;;;25.40;13.32;;;25.00;99.90;;;;;;5101798;28;20020;-59
2021/08/13 10:53:33;;;;;;;20.83;11.18;;;25.10;99.90;;;;;;5106784;28;20016;-59
2021/08/13 10:56:00;;;;;;;15.13;10.15;;;25.40;99.90;;;;;;5101924;28;20024;-60
2021/08/13 10:58:41;;;;;;;13.55;9.07;;;25.80;99.90;;;;;;5110489;27;20027;-59
2021/08/13 11:01:08;;;;;;;20.67;9.77;;;25.90;99.90;;;;;;5102254;27;20465;-57
2021/08/13 11:03:35;;;;;;;15.10;9.32;;;25.80;99.90;;;;;;5104858;27;20030;-58
2021/08/13 11:06:01;;;;;;;16.73;9.65;;;25.50;99.90;;;;;;5101536;27;20395;-59
2021/08/13 11:08:42;;;;;;;13.90;9.38;;;25.40;99.90;;;;;;5106347;28;20030;-61
2021/08/13 11:11:11;;;;;;;13.70;8.70;;;25.20;99.90;;;;;;5101442;27;20051;-60
2021/08/13 11:13:38;;;;;;;14.48;8.85;;;25.40;99.90;;;;;;5103138;28;20370;-60
2021/08/13 11:16:29;;;;;;;13.75;9.30;;;25.30;99.90;;;;;;5099536;28;20023;-59
2021/08/13 11:18:58;;;;;;;17.30;8.63;;;25.10;99.90;;;;;;5100199;27;20052;-60
2021/08/13 11:21:32;;;;;;;13.70;8.93;;;25.30;99.90;;;;;;5101864;28;20091;-61
2021/08/13 11:24:03;;;;;;;14.10;8.43;;;25.50;99.90;;;;;;5096858;28;20822;-60
2021/08/13 11:26:47;;;;;;;12.75;8.30;;;25.60;99.90;;;;;;5096653;27;20120;-61
2021/08/13 11:29:34;;;;;;;14.65;7.32;;;25.50;99.90;;;;;;5096711;28;20532;-61
2021/08/13 11:32:01;;;;;;;14.25;7.65;;;25.50;99.90;;;;;;5095024;28;20031;-58
2021/08/13 11:34:56;;;;;;;9.25;6.47;;;25.60;99.90;;;;;;5096389;28;20049;-59
2021/08/13 11:37:30;;;;;;;11.48;7.25;;;25.80;99.90;;;;;;5100938;28;20031;-58
2021/08/13 11:40:00;;;;;;;12.70;7.20;;;26.10;99.90;;;;;;5110961;28;20031;-60
2021/08/13 11:42:34;;;;;;;14.40;8.65;;;25.80;99.90;;;;;;5090759;28;20032;-61
2021/08/13 11:45:08;;;;;;;11.95;6.80;;;25.40;99.90;;;;;;5096208;28;20114;-59
2021/08/13 11:47:35;;;;;;;12.55;7.10;;;25.70;99.90;;;;;;5098226;28;20028;-58
2021/08/13 11:50:06;;;;;;;15.05;6.70;;;25.60;99.90;;;;;;5102589;27;20043;-56
2021/08/13 11:52:33;;;;;;;10.18;6.00;;;25.30;99.90;;;;;;5100632;28;20055;-58
2021/08/13 11:55:22;;;;;;;13.20;5.65;;;25.30;99.90;;;;;;5096565;28;20516;-58
2021/08/13 11:57:52;;;;;;;10.82;5.35;;;25.30;99.90;;;;;;5098406;28;20028;-57
2021/08/13 12:00:37;;;;;;;7.95;5.25;;;25.50;99.90;;;;;;5097986;28;20017;-57
2021/08/13 12:03:11;;;;;;;10.20;5.75;;;25.60;99.90;;;;;;5104157;28;20080;-58
2021/08/13 12:05:41;;;;;;;8.07;5.43;;;25.40;99.90;;;;;;5108667;28;20394;-58
2021/08/13 12:08:16;;;;;;;11.90;5.43;;;25.30;99.90;;;;;;5096282;28;20039;-57
2021/08/13 12:10:47;;;;;;;7.25;5.25;;;25.20;99.90;;;;;;5092829;28;20023;-61
2021/08/13 12:13:13;;;;;;;9.85;5.40;;;25.20;99.90;;;;;;5103554;28;20028;-60
2021/08/13 12:15:41;;;;;;;7.78;5.00;;;25.10;99.90;;;;;;5099958;28;20016;-58
2021/08/13 12:18:07;;;;;;;9.32;4.78;;;25.10;99.90;;;;;;5101456;28;20047;-58
2021/08/13 12:20:35;;;;;;;6.50;4.28;;;25.20;99.90;;;;;;5100079;27;20024;-60
2021/08/13 12:23:06;;;;;;;8.65;4.05;;;25.40;99.90;;;;;;5095867;28;20477;-58
2021/08/13 12:25:43;;;;;;;5.30;3.53;;;25.50;99.90;;;;;;5089653;28;20479;-58
2021/08/13 12:28:11;;;;;;;4.60;3.35;;;25.70;99.90;;;;;;5104796;28;20490;-58
2021/08/13 12:30:37;;;;;;;4.78;3.42;;;25.90;99.90;;;;;;5090419;28;20024;-58
2021/08/13 12:33:06;;;;;;;6.85;3.17;;;26.10;99.90;;;;;;5096666;28;20024;-58
2021/08/13 12:35:40;;;;;;;9.93;3.47;;;26.20;99.90;;;;;;5112439;28;20028;-58
2021/08/13 12:38:08;;;;;;;7.82;3.17;;;26.20;99.90;;;;;;5107411;28;20032;-60
2021/08/13 12:40:41;;;;;;;5.68;2.75;;;26.20;99.90;;;;;;5095224;28;20159;-59
2021/08/13 12:43:08;;;;;;;5.70;2.63;;;25.50;99.90;;;;;;5100971;27;20111;-60